Time;durP1;ratioP1;P1;durP2;ratioP2;P2;SDS_P1;SDS_P2;PMS_P1;PMS_P2;Temp;Humidity;BMP_temperature;BMP_pressure;BME280_temperature;BME280_humidity;BME280_pressure;Samples;Min_cycle;Max_cycle;Signal;HPM_P1;HPM_P2
2022/02/15 00:01:46;;;;;;;7.22;3.83;;;5.10;99.90;;;;;;6284736;22;20295;-80
2022/02/15 00:04:33;;;;;;;5.57;3.53;;;5.10;99.90;;;;;;6307606;22;20279;-81
2022/02/15 00:07:21;;;;;;;4.30;3.17;;;5.00;99.90;;;;;;6283598;22;20023;-81
2022/02/15 00:10:09;;;;;;;7.43;3.33;;;5.00;99.90;;;;;;6284692;22;20053;-82
2022/02/15 00:12:56;;;;;;;4.65;3.40;;;5.00;99.90;;;;;;6283692;22;20019;-81
2022/02/15 00:15:45;;;;;;;7.85;4.15;;;5.00;99.90;;;;;;6283060;22;20023;-82
2022/02/15 00:18:33;;;;;;;6.07;3.80;;;5.00;99.90;;;;;;6283320;22;20019;-81
2022/02/15 00:21:20;;;;;;;5.55;3.10;;;5.00;99.90;;;;;;6281935;22;20019;-82
2022/02/15 00:24:10;;;;;;;4.80;3.05;;;5.00;99.90;;;;;;6281021;22;20027;-81
2022/02/15 00:26:57;;;;;;;4.75;2.70;;;4.90;99.90;;;;;;6283517;22;20081;-82
2022/02/15 00:29:47;;;;;;;4.32;2.83;;;4.90;99.90;;;;;;6284615;22;20033;-82
2022/02/15 00:32:34;;;;;;;3.40;2.65;;;4.90;99.90;;;;;;6304331;22;20372;-81
2022/02/15 00:35:22;;;;;;;4.18;2.55;;;4.80;99.90;;;;;;6305017;22;20090;-82
2022/02/15 00:38:10;;;;;;;3.20;2.38;;;4.80;99.90;;;;;;6307645;22;20123;-82
2022/02/15 00:40:57;;;;;;;2.75;2.30;;;4.80;99.90;;;;;;6303746;22;20103;-82
2022/02/15 00:43:45;;;;;;;4.85;2.78;;;4.80;99.90;;;;;;6304923;22;20411;-81
2022/02/15 00:46:32;;;;;;;3.95;2.72;;;4.80;99.90;;;;;;6304779;22;20161;-81
2022/02/15 00:49:22;;;;;;;4.75;2.20;;;4.80;99.90;;;;;;6282825;22;20526;-81
2022/02/15 00:52:09;;;;;;;3.92;2.60;;;4.80;99.90;;;;;;6306139;22;20038;-81
2022/02/15 00:54:57;;;;;;;3.08;2.30;;;4.80;99.90;;;;;;6304612;22;20023;-81
2022/02/15 00:57:44;;;;;;;3.88;2.50;;;4.80;99.90;;;;;;6283964;22;20027;-81
2022/02/15 01:00:31;;;;;;;8.23;2.47;;;4.80;99.90;;;;;;6303780;22;20073;-82
2022/02/15 01:03:18;;;;;;;4.60;2.30;;;4.70;99.90;;;;;;6306332;22;20104;-81
2022/02/15 01:06:06;;;;;;;5.78;2.53;;;4.70;99.90;;;;;;6304665;22;20042;-81
2022/02/15 01:08:53;;;;;;;3.92;2.55;;;4.70;99.90;;;;;;6304112;22;20023;-81
2022/02/15 01:11:40;;;;;;;3.08;2.25;;;4.70;99.90;;;;;;6306377;22;20034;-81
2022/02/15 01:14:28;;;;;;;4.50;2.10;;;4.70;99.90;;;;;;6306075;22;20157;-83
2022/02/15 01:17:15;;;;;;;3.67;2.72;;;4.60;99.90;;;;;;6307754;22;20027;-83
2022/02/15 01:20:03;;;;;;;4.30;2.58;;;4.60;99.90;;;;;;6306175;22;20023;-84
2022/02/15 01:22:52;;;;;;;3.22;2.40;;;4.60;99.90;;;;;;6305446;22;20027;-82
2022/02/15 01:25:41;;;;;;;3.40;2.80;;;4.60;99.90;;;;;;6306294;22;20061;-79
2022/02/15 01:28:34;;;;;;;3.92;2.58;;;4.50;99.90;;;;;;6303816;22;20019;-83
2022/02/15 01:31:24;;;;;;;5.13;2.35;;;4.50;99.90;;;;;;6305578;22;20034;-81
2022/02/15 01:34:15;;;;;;;3.40;2.50;;;4.50;99.90;;;;;;6304568;22;20498;-82
2022/02/15 01:37:02;;;;;;;3.05;2.38;;;4.40;99.90;;;;;;6305409;22;20130;-81
2022/02/15 01:39:52;;;;;;;3.20;2.25;;;4.40;99.90;;;;;;6304481;22;20334;-82
2022/02/15 01:42:39;;;;;;;4.55;2.30;;;4.40;99.90;;;;;;6283089;22;20019;-81
2022/02/15 01:45:29;;;;;;;4.93;3.05;;;4.40;99.90;;;;;;6283819;22;20057;-80
2022/02/15 01:48:16;;;;;;;4.43;2.60;;;4.40;99.90;;;;;;6281620;22;20502;-82
2022/02/15 01:51:04;;;;;;;4.88;3.20;;;4.40;99.90;;;;;;6306352;22;20442;-81
2022/02/15 01:53:51;;;;;;;5.57;2.90;;;4.50;99.90;;;;;;6282512;22;20027;-81
2022/02/15 01:56:39;;;;;;;4.65;2.80;;;4.50;99.90;;;;;;6281760;22;20031;-83
2022/02/15 01:59:26;;;;;;;7.50;2.72;;;4.40;99.90;;;;;;6281010;22;20098;-81
2022/02/15 02:02:16;;;;;;;4.80;2.83;;;4.40;99.90;;;;;;6304039;22;20023;-83
2022/02/15 02:08:10;;;;;;;6.60;2.80;;;4.40;99.90;;;;;;6304961;22;20027;-81
2022/02/15 02:10:57;;;;;;;6.57;2.83;;;4.30;99.90;;;;;;6307168;22;20104;-83
2022/02/15 02:13:44;;;;;;;5.63;3.00;;;4.30;99.90;;;;;;6306913;22;20587;-82
2022/02/15 02:16:32;;;;;;;4.90;2.92;;;4.30;99.90;;;;;;6303775;22;20031;-83
2022/02/15 02:19:19;;;;;;;5.78;2.85;;;4.30;99.90;;;;;;6304959;22;20031;-81
2022/02/15 02:22:06;;;;;;;4.65;3.00;;;4.30;99.90;;;;;;6281582;22;20023;-82
2022/02/15 02:24:55;;;;;;;6.65;3.38;;;4.30;99.90;;;;;;6304506;22;20436;-82
2022/02/15 02:27:43;;;;;;;5.78;3.40;;;4.30;99.90;;;;;;6303638;22;20042;-81
2022/02/15 02:30:30;;;;;;;9.63;3.35;;;4.30;99.90;;;;;;6304268;22;20026;-82
2022/02/15 02:33:18;;;;;;;3.63;3.00;;;4.30;99.90;;;;;;6281278;22;20023;-81
2022/02/15 02:36:08;;;;;;;5.82;2.88;;;4.30;99.90;;;;;;6305042;22;20103;-81
2022/02/15 02:38:58;;;;;;;5.82;3.10;;;4.30;99.90;;;;;;6307634;22;20034;-84
2022/02/15 02:41:45;;;;;;;6.65;2.92;;;4.30;99.90;;;;;;6309453;22;20031;-81
2022/02/15 02:44:32;;;;;;;9.32;2.97;;;4.40;99.90;;;;;;6305125;22;20047;-81
2022/02/15 02:47:20;;;;;;;7.85;3.50;;;4.40;99.90;;;;;;6303742;22;20318;-83
2022/02/15 02:50:07;;;;;;;5.85;3.30;;;4.40;99.90;;;;;;6303826;22;20148;-81
2022/02/15 02:52:55;;;;;;;6.57;3.22;;;4.40;99.90;;;;;;6305284;22;20166;-81
2022/02/15 02:55:42;;;;;;;4.53;2.70;;;4.50;99.90;;;;;;6304549;22;20065;-81
2022/02/15 02:58:29;;;;;;;9.93;3.47;;;4.50;99.90;;;;;;6303648;22;20080;-82
2022/02/15 03:01:16;;;;;;;6.00;3.17;;;4.50;99.90;;;;;;6305202;22;20122;-83
2022/02/15 03:04:03;;;;;;;5.45;3.25;;;4.50;99.90;;;;;;6303618;22;20084;-82
2022/02/15 03:06:50;;;;;;;7.03;3.40;;;4.50;99.90;;;;;;6280953;22;20077;-83
2022/02/15 03:09:38;;;;;;;6.30;3.78;;;4.50;99.90;;;;;;6304937;22;20019;-82
2022/02/15 03:12:25;;;;;;;5.68;3.60;;;4.50;99.90;;;;;;6305665;22;20035;-82
2022/02/15 03:15:12;;;;;;;6.40;3.50;;;4.50;99.90;;;;;;6303616;22;20031;-80
2022/02/15 03:17:59;;;;;;;6.13;3.92;;;4.50;99.90;;;;;;6283114;22;20472;-85
2022/02/15 03:20:49;;;;;;;7.72;4.07;;;4.40;99.90;;;;;;6285801;22;20354;-82
2022/02/15 03:23:38;;;;;;;10.15;4.18;;;4.40;99.90;;;;;;6310378;22;20020;-81
2022/02/15 03:26:25;;;;;;;6.90;4.35;;;4.40;99.90;;;;;;6310283;22;20077;-83
2022/02/15 03:29:15;;;;;;;8.00;3.92;;;4.40;99.90;;;;;;6304084;22;20035;-82
2022/02/15 03:32:03;;;;;;;10.60;4.43;;;4.40;99.90;;;;;;6303985;22;20156;-82
2022/02/15 03:34:52;;;;;;;9.32;4.72;;;4.30;99.90;;;;;;6285708;22;20121;-83
2022/02/15 03:37:42;;;;;;;5.97;4.70;;;4.40;99.90;;;;;;6305264;22;20054;-83
2022/02/15 03:43:35;;;;;;;6.80;4.70;;;4.30;99.90;;;;;;6316606;22;20099;-82
2022/02/15 03:46:26;;;;;;;11.82;5.10;;;4.40;99.90;;;;;;6314732;22;20053;-81
2022/02/15 03:49:15;;;;;;;10.88;5.85;;;4.40;99.90;;;;;;6314395;22;20031;-83
2022/02/15 03:52:03;;;;;;;7.75;5.45;;;4.40;99.90;;;;;;6304847;22;20023;-81
2022/02/15 03:54:50;;;;;;;11.88;5.63;;;4.40;99.90;;;;;;6297384;22;20092;-82
2022/02/15 03:57:40;;;;;;;10.05;5.93;;;4.40;99.90;;;;;;6322912;22;20038;-82
2022/02/15 04:00:29;;;;;;;10.25;6.32;;;4.40;99.90;;;;;;6300700;22;20023;-83
2022/02/15 04:03:17;;;;;;;10.30;5.82;;;4.50;99.90;;;;;;6318873;22;20043;-82
2022/02/15 04:06:04;;;;;;;11.48;6.28;;;4.40;99.90;;;;;;6324029;22;20027;-83
2022/02/15 04:08:51;;;;;;;14.18;6.03;;;4.50;99.90;;;;;;6300009;22;20035;-82
2022/02/15 04:11:38;;;;;;;13.00;6.43;;;4.40;99.90;;;;;;6320120;22;20046;-81
2022/02/15 04:14:25;;;;;;;12.60;6.07;;;4.30;99.90;;;;;;6321664;22;20023;-81
2022/02/15 04:17:15;;;;;;;9.25;6.32;;;4.30;99.90;;;;;;6315610;22;20027;-84
2022/02/15 04:20:03;;;;;;;11.90;6.50;;;4.30;99.90;;;;;;6300232;22;20468;-83
2022/02/15 04:22:53;;;;;;;11.85;6.40;;;4.30;99.90;;;;;;6321489;22;20055;-82
2022/02/15 04:25:40;;;;;;;10.82;6.90;;;4.30;99.90;;;;;;6318268;22;20103;-81
2022/02/15 04:28:27;;;;;;;12.48;7.13;;;4.30;99.90;;;;;;6304159;22;20023;-81
2022/02/15 04:31:15;;;;;;;8.40;5.63;;;4.30;99.90;;;;;;6327573;22;20041;-82
2022/02/15 04:34:02;;;;;;;11.40;6.30;;;4.30;99.90;;;;;;6330128;22;20080;-83
2022/02/15 04:36:49;;;;;;;9.20;6.30;;;4.30;99.90;;;;;;6309675;22;20019;-80
2022/02/15 04:39:38;;;;;;;11.60;6.05;;;4.30;99.90;;;;;;6330992;22;20011;-83
2022/02/15 04:42:26;;;;;;;8.98;5.63;;;4.40;99.90;;;;;;6307814;22;20015;-82
2022/02/15 04:45:15;;;;;;;9.55;5.57;;;4.40;99.90;;;;;;6307897;22;20060;-82
2022/02/15 04:48:03;;;;;;;8.98;5.38;;;4.40;99.90;;;;;;6309445;22;20023;-82
2022/02/15 04:50:50;;;;;;;9.57;5.05;;;4.40;99.90;;;;;;6332090;22;20030;-82
2022/02/15 04:53:37;;;;;;;9.40;4.78;;;4.40;99.90;;;;;;6332000;22;20060;-81
2022/02/15 04:56:24;;;;;;;10.45;4.68;;;4.40;99.90;;;;;;6332245;22;20035;-81
2022/02/15 04:59:11;;;;;;;6.32;4.15;;;4.40;99.90;;;;;;6308917;22;20099;-82
2022/02/15 05:01:58;;;;;;;10.48;4.70;;;4.40;99.90;;;;;;6326097;22;20058;-83
2022/02/15 05:04:48;;;;;;;8.00;4.20;;;4.40;99.90;;;;;;6324195;22;20023;-82
2022/02/15 05:07:35;;;;;;;9.82;3.72;;;4.50;99.90;;;;;;6325794;22;20024;-82
2022/02/15 05:10:25;;;;;;;5.82;3.67;;;4.50;99.90;;;;;;6325871;22;20027;-82
2022/02/15 05:13:12;;;;;;;9.13;4.70;;;4.50;99.90;;;;;;6324748;22;20039;-82
2022/02/15 05:15:59;;;;;;;9.27;4.35;;;4.50;99.90;;;;;;6316725;22;20023;-82
2022/02/15 05:18:49;;;;;;;9.90;4.28;;;4.50;99.90;;;;;;6315866;22;20019;-81
2022/02/15 05:21:36;;;;;;;7.65;4.00;;;4.50;99.90;;;;;;6294828;22;20034;-80
2022/02/15 05:24:24;;;;;;;7.15;4.05;;;4.50;99.90;;;;;;6289566;22;20053;-81
2022/02/15 05:27:18;;;;;;;11.13;4.50;;;4.50;99.90;;;;;;6291394;22;20023;-81
2022/02/15 05:30:08;;;;;;;11.90;4.43;;;4.50;99.90;;;;;;6292801;22;20011;-82
2022/02/15 05:32:55;;;;;;;8.45;4.13;;;4.50;99.90;;;;;;6326860;22;20261;-81
2022/02/15 05:35:42;;;;;;;7.57;4.40;;;4.50;99.90;;;;;;6322620;22;20031;-83
2022/02/15 05:38:30;;;;;;;6.78;3.88;;;4.50;99.90;;;;;;6321796;22;20034;-83
2022/02/15 05:41:17;;;;;;;5.88;4.05;;;4.50;99.90;;;;;;6321719;22;20035;-82
2022/02/15 05:49:03;;;;;;;6.18;4.45;;;4.50;99.90;;;;;;6231764;23;20009;-86
2022/02/15 06:09:02;;;;;;;10.52;4.20;;;4.50;99.90;;;;;;5991372;23;20019;-85
2022/02/15 06:11:52;;;;;;;11.63;4.53;;;4.50;99.90;;;;;;6031201;23;20038;-86
2022/02/15 06:14:39;;;;;;;12.60;5.10;;;4.50;99.90;;;;;;6150655;22;20096;-86
2022/02/15 06:17:31;;;;;;;8.27;4.95;;;4.50;99.90;;;;;;6295533;22;20043;-82
2022/02/15 06:20:24;;;;;;;12.27;6.10;;;4.50;99.90;;;;;;6294323;22;20045;-82
2022/02/15 06:23:11;;;;;;;11.52;6.55;;;4.40;99.90;;;;;;6293633;22;20026;-80
2022/02/15 06:25:59;;;;;;;10.60;5.93;;;4.30;99.90;;;;;;6313505;22;20019;-82
2022/02/15 06:28:46;;;;;;;11.82;6.97;;;4.30;99.90;;;;;;6283957;22;20030;-82
2022/02/15 06:31:36;;;;;;;9.95;6.57;;;4.20;99.90;;;;;;6264539;22;20035;-82
2022/02/15 06:34:24;;;;;;;16.13;8.13;;;4.20;99.90;;;;;;6307887;22;20076;-81
2022/02/15 06:37:15;;;;;;;15.65;8.70;;;4.20;99.90;;;;;;6291879;22;20038;-83
2022/02/15 06:40:06;;;;;;;15.65;8.82;;;4.20;99.90;;;;;;6281137;22;20169;-82
2022/02/15 06:42:53;;;;;;;16.67;8.88;;;4.20;99.90;;;;;;6306664;22;20385;-83
2022/02/15 06:46:13;;;;;;;14.75;8.48;;;4.10;99.90;;;;;;6273602;22;20023;-80
2022/02/15 06:53:26;;;;;;;11.48;7.32;;;4.00;99.90;;;;;;6152136;23;20084;-81
2022/02/15 06:56:39;;;;;;;21.90;11.05;;;4.00;99.90;;;;;;6134599;23;20141;-82
2022/02/15 08:29:36;;;;;;;11.82;7.78;;;4.40;99.90;;;;;;6248103;22;1398747;-89
2022/02/15 08:32:50;;;;;;;15.73;9.23;;;4.40;99.90;;;;;;6159709;23;20025;-88
2022/02/15 08:36:30;;;;;;;17.17;9.50;;;4.50;99.90;;;;;;6136104;23;20036;-89
2022/02/15 08:39:35;;;;;;;15.80;8.77;;;4.50;99.90;;;;;;6072071;23;20023;-90
2022/02/15 08:42:38;;;;;;;11.80;7.60;;;4.70;99.90;;;;;;6054502;23;20034;-89
2022/02/15 08:53:31;;;;;;;12.30;5.13;;;5.20;99.90;;;;;;5931682;24;20152;-90
2022/02/15 08:57:14;;;;;;;;;;;;;;;;;;;;;
2022/02/15 09:04:39;;;;;;;3.53;2.60;;;5.50;99.90;;;;;;5937072;24;20025;-91
2022/02/15 09:07:44;;;;;;;4.72;2.97;;;5.80;99.90;;;;;;6038403;23;20019;-87
2022/02/15 09:15:06;;;;;;;;;;;;;;;;;;;;;
2022/02/15 09:19:26;;;;;;;5.50;2.60;;;6.00;99.90;;;;;;6244274;22;20030;-90
2022/02/15 09:30:54;;;;;;;1.90;1.73;;;7.40;99.90;;;;;;6123012;23;20165;-86
2022/02/15 09:33:46;;;;;;;;;;;7.10;99.90;;;;;;6123475;23;20093;-87
2022/02/15 09:36:45;;;;;;;3.15;2.15;;;6.90;99.90;;;;;;6122958;23;19932;-86
2022/02/15 09:39:45;;;;;;;5.30;2.20;;;6.50;99.90;;;;;;6212018;23;20028;-87
2022/02/15 09:42:36;;;;;;;2.75;2.03;;;6.30;99.90;;;;;;6208145;23;20198;-86
2022/02/15 09:45:26;;;;;;;3.00;2.15;;;6.20;99.90;;;;;;6189447;23;20051;-86
2022/02/15 09:48:24;;;;;;;3.35;1.92;;;6.40;99.90;;;;;;6193883;23;20537;-86
2022/02/15 09:51:12;;;;;;;3.42;1.95;;;6.70;99.90;;;;;;6214646;23;20056;-86
2022/02/15 09:53:59;;;;;;;3.30;1.85;;;7.00;99.90;;;;;;6194286;23;20059;-90
2022/02/15 10:09:04;;;;;;;5.05;2.28;;;10.80;99.90;;;;;;6068436;23;20026;-85
2022/02/15 10:12:49;;;;;;;2.08;1.40;;;10.00;99.90;;;;;;6195459;23;20039;-86
2022/02/15 10:20:09;;;;;;;2.33;1.37;;;13.40;94.10;;;;;;6101481;23;20026;-87
2022/02/15 10:23:47;;;;;;;1.85;1.05;;;13.60;91.90;;;;;;6187394;23;20063;-88
2022/02/15 10:26:39;;;;;;;2.00;1.35;;;12.70;90.20;;;;;;6212728;22;20091;-87
2022/02/15 10:29:56;;;;;;;2.78;1.25;;;11.10;94.00;;;;;;6283820;22;20060;-89
2022/02/15 10:33:07;;;;;;;2.65;1.50;;;10.40;96.00;;;;;;6278924;22;20081;-91
2022/02/15 10:36:15;;;;;;;2.45;1.40;;;9.60;98.80;;;;;;6275822;22;20686;-89
2022/02/15 10:39:13;;;;;;;2.95;1.70;;;9.00;99.90;;;;;;6273529;22;20427;-87
2022/02/15 10:42:27;;;;;;;;;;;;;;;;;;;;;
2022/02/15 10:45:14;;;;;;;7.70;1.85;;;7.80;99.90;;;;;;6275763;22;20052;-86
2022/02/15 10:48:18;;;;;;;3.80;1.73;;;7.50;99.90;;;;;;6275606;22;20050;-85
2022/02/15 10:51:10;;;;;;;4.25;1.60;;;7.40;99.90;;;;;;6272749;22;20024;-84
2022/02/15 10:54:15;;;;;;;3.78;1.65;;;7.20;99.90;;;;;;6272780;22;20078;-87
2022/02/15 10:57:03;;;;;;;1.67;1.50;;;7.20;99.90;;;;;;6272628;22;20031;-88
2022/02/15 10:59:54;;;;;;;4.28;1.70;;;7.10;99.90;;;;;;6277245;22;20039;-87
2022/02/15 11:02:42;;;;;;;2.75;1.70;;;7.00;99.90;;;;;;6274897;22;20035;-86
2022/02/15 11:05:32;;;;;;;4.10;1.90;;;7.10;99.90;;;;;;6271431;22;20028;-88
2022/02/15 11:08:23;;;;;;;3.60;2.15;;;7.10;99.90;;;;;;6274605;22;20024;-88
2022/02/15 11:36:47;;;;;;;1.50;1.40;;;7.90;99.90;;;;;;6152441;23;20016;-89
2022/02/15 11:40:27;;;;;;;2.95;2.03;;;7.90;99.90;;;;;;6151392;23;20144;-88
2022/02/15 11:43:25;;;;;;;5.50;1.90;;;7.90;99.90;;;;;;6177088;23;20941;-87
2022/02/15 11:47:15;;;;;;;;;;;;;;;;;;;;;
2022/02/15 11:54:21;;;;;;;2.70;1.63;;;8.90;99.90;;;;;;6142976;23;19931;-88
2022/02/15 11:57:24;;;;;;;2.53;1.77;;;8.60;99.90;;;;;;6149583;23;20161;-87
2022/02/15 12:00:19;;;;;;;2.22;1.60;;;8.30;99.90;;;;;;6150213;23;20021;-86
2022/02/15 12:03:27;;;;;;;3.00;1.65;;;8.10;99.90;;;;;;6148736;23;20036;-88
2022/02/15 12:11:30;;;;;;;;;;;;;;;;;;;;;
2022/02/15 12:20:26;;;;;;;;;;;;;;;;;;;;;
2022/02/15 12:23:36;;;;;;;4.72;1.95;;;8.60;99.90;;;;;;5937915;24;20044;-89
2022/02/15 12:30:55;;;;;;;3.85;2.42;;;7.60;99.90;;;;;;5899913;24;20021;-91
2022/02/15 12:34:09;;;;;;;3.50;2.58;;;7.50;99.90;;;;;;5997034;23;20072;-88
2022/02/15 12:38:10;;;;;;;5.72;3.03;;;7.40;99.90;;;;;;6009774;23;20440;-90
2022/02/15 12:54:39;;;;;;;;;;;;;;;;;;;;;
2022/02/15 12:58:13;;;;;;;;;;;;;;;;;;;;;
2022/02/15 13:05:33;;;;;;;4.07;2.92;;;7.90;99.90;;;;;;6233509;22;20044;-87
2022/02/15 13:09:00;;;;;;;;;;;8.70;99.90;;;;;;6250191;23;20020;-88
2022/02/15 13:16:28;;;;;;;1.92;1.67;;;8.60;99.90;;;;;;6252139;23;20203;-91
2022/02/15 13:20:09;;;;;;;3.25;1.98;;;8.10;99.90;;;;;;6244117;22;20035;-86
2022/02/15 13:23:34;;;;;;;4.20;1.70;;;7.80;99.90;;;;;;6252408;23;20047;-86
2022/02/15 13:27:30;;;;;;;;;;;;;;;;;;;;;
2022/02/15 13:30:27;;;;;;;2.58;1.50;;;8.40;99.90;;;;;;6223624;23;20052;-86
2022/02/15 13:50:13;;;;;;;2.40;1.55;;;7.00;99.90;;;;;;6101558;23;20038;-89
2022/02/15 14:08:43;;;;;;;2.50;1.95;;;12.60;84.60;;;;;;6096233;23;20002;-85
2022/02/15 14:11:35;;;;;;;2.75;1.65;;;13.10;77.80;;;;;;6095145;23;20054;-83
2022/02/15 14:14:23;;;;;;;2.25;1.67;;;11.80;79.00;;;;;;6186784;22;20154;-86
2022/02/15 14:17:46;;;;;;;2.88;1.77;;;9.80;89.90;;;;;;6220259;22;20411;-85
2022/02/15 14:20:34;;;;;;;2.60;2.05;;;8.90;94.30;;;;;;6245002;22;20066;-85
2022/02/15 14:23:26;;;;;;;8.50;2.58;;;8.50;97.40;;;;;;6244571;23;20023;-87
2022/02/15 14:26:17;;;;;;;4.68;2.00;;;8.30;99.90;;;;;;6242808;23;20102;-88
2022/02/15 14:29:05;;;;;;;3.25;1.80;;;8.20;99.90;;;;;;6244687;23;20086;-86
2022/02/15 14:31:57;;;;;;;4.20;1.90;;;7.90;99.90;;;;;;6248757;22;20099;-87
2022/02/15 14:34:58;;;;;;;;;;;7.60;99.90;;;;;;6244827;23;20016;-87
2022/02/15 14:37:54;;;;;;;3.10;1.80;;;7.40;99.90;;;;;;6246620;22;19919;-87
2022/02/15 14:41:05;;;;;;;2.05;1.85;;;7.30;99.90;;;;;;6153148;23;20123;-87
2022/02/15 14:43:57;;;;;;;2.40;2.10;;;7.10;99.90;;;;;;6163721;23;20107;-86
2022/02/15 14:46:47;;;;;;;2.65;2.05;;;7.10;99.90;;;;;;6157767;23;20025;-86
2022/02/15 14:53:47;;;;;;;5.72;2.63;;;7.10;99.90;;;;;;6182263;23;20305;-87
2022/02/15 14:56:42;;;;;;;6.32;1.92;;;7.30;99.90;;;;;;6195809;23;20492;-87
2022/02/15 14:59:42;;;;;;;2.33;1.80;;;8.80;99.90;;;;;;6235522;23;20028;-86
2022/02/15 15:03:06;;;;;;;4.03;1.65;;;10.00;97.50;;;;;;6258273;23;20096;-84
2022/02/15 15:05:55;;;;;;;2.40;1.80;;;11.20;90.30;;;;;;6264413;23;20012;-85
2022/02/15 15:08:44;;;;;;;2.08;1.50;;;11.50;84.70;;;;;;6263050;23;20082;-84
2022/02/15 15:11:31;;;;;;;2.70;1.70;;;12.10;80.80;;;;;;6253417;23;20040;-86
2022/02/15 15:14:23;;;;;;;3.55;2.08;;;12.50;76.70;;;;;;6259425;23;20073;-87
2022/02/15 15:17:13;;;;;;;4.38;1.80;;;11.50;77.30;;;;;;6258440;23;20078;-86
2022/02/15 15:20:02;;;;;;;3.33;1.70;;;9.90;84.90;;;;;;6256737;23;20031;-87
2022/02/15 15:22:52;;;;;;;2.00;1.60;;;8.40;91.20;;;;;;6245984;23;20027;-84
2022/02/15 15:25:51;;;;;;;2.33;2.03;;;7.60;95.10;;;;;;6247487;22;20042;-84
2022/02/15 15:28:38;;;;;;;3.38;2.60;;;7.20;99.90;;;;;;6244906;23;20024;-85
2022/02/15 15:31:34;;;;;;;5.63;2.55;;;7.60;99.90;;;;;;6247586;23;20028;-85
2022/02/15 15:34:21;;;;;;;10.02;4.22;;;8.20;98.60;;;;;;6256044;22;20039;-86
2022/02/15 15:37:13;;;;;;;9.27;3.67;;;8.00;98.50;;;;;;6248728;22;20038;-88
2022/02/15 15:40:13;;;;;;;3.30;2.67;;;7.60;99.40;;;;;;6253806;22;20020;-90
2022/02/15 15:43:14;;;;;;;4.03;2.55;;;7.20;99.90;;;;;;6211476;23;20031;-88
2022/02/15 15:46:59;;;;;;;;;;;;;;;;;;;;;
2022/02/15 15:50:11;;;;;;;5.70;2.45;;;6.80;99.90;;;;;;6224312;22;20020;-90
2022/02/15 15:53:53;;;;;;;;;;;;;;;;;;;;;
2022/02/15 15:57:12;;;;;;;2.50;1.88;;;6.90;99.90;;;;;;6222567;22;20012;-90
2022/02/15 16:00:07;;;;;;;4.78;2.33;;;7.80;99.90;;;;;;6244972;23;20376;-87
2022/02/15 16:03:43;;;;;;;;;;;;;;;;;;;;;
2022/02/15 16:06:40;;;;;;;4.28;1.80;;;8.10;99.90;;;;;;6242615;23;20046;-86
2022/02/15 16:09:38;;;;;;;3.35;2.63;;;7.70;99.90;;;;;;6243119;23;20020;-88
2022/02/15 16:15:40;;;;;;;5.47;2.42;;;6.90;99.90;;;;;;6244736;23;20095;-87
2022/02/15 16:18:28;;;;;;;4.20;2.20;;;6.40;99.90;;;;;;6246288;23;20031;-85
2022/02/15 16:21:17;;;;;;;6.63;3.80;;;6.20;99.90;;;;;;6246013;22;20024;-86
2022/02/15 16:24:05;;;;;;;7.78;2.80;;;6.00;99.90;;;;;;6245695;23;20103;-87
2022/02/15 16:26:52;;;;;;;4.95;2.70;;;5.90;99.90;;;;;;6244125;23;20040;-85
2022/02/15 16:29:56;;;;;;;3.00;2.30;;;5.80;99.90;;;;;;6243647;23;20038;-87
2022/02/15 16:32:51;;;;;;;4.68;2.08;;;5.60;99.90;;;;;;6253411;23;20099;-88
2022/02/15 16:35:56;;;;;;;5.38;2.28;;;5.50;99.90;;;;;;6257808;23;20032;-84
2022/02/15 16:38:44;;;;;;;5.30;1.60;;;5.40;99.90;;;;;;6259011;22;20074;-86
2022/02/15 16:41:32;;;;;;;2.60;2.05;;;5.30;99.90;;;;;;6256507;23;20027;-86
2022/02/15 16:44:19;;;;;;;3.83;2.45;;;5.20;99.90;;;;;;6263981;22;20035;-83
2022/02/15 16:47:08;;;;;;;5.03;2.38;;;5.10;99.90;;;;;;6265425;22;20413;-84
2022/02/15 16:49:55;;;;;;;3.15;1.85;;;5.10;99.90;;;;;;6268997;22;20019;-84
2022/02/15 16:52:56;;;;;;;5.93;2.55;;;5.00;99.90;;;;;;6252333;23;20102;-86
2022/02/15 16:55:51;;;;;;;5.88;2.70;;;4.90;99.90;;;;;;6264601;22;20072;-85
2022/02/15 16:58:44;;;;;;;4.30;2.80;;;4.80;99.90;;;;;;6263767;22;20035;-85
2022/02/15 17:01:31;;;;;;;7.55;3.13;;;4.90;99.90;;;;;;6263620;23;20019;-84
2022/02/15 17:04:18;;;;;;;4.88;2.50;;;4.90;99.90;;;;;;6253904;23;20047;-84
2022/02/15 17:07:09;;;;;;;6.82;2.35;;;4.90;99.90;;;;;;6249600;23;20078;-84
2022/02/15 17:10:06;;;;;;;3.65;2.10;;;4.90;99.90;;;;;;6249836;23;20017;-85
2022/02/15 17:12:55;;;;;;;2.20;1.85;;;4.90;99.90;;;;;;6247405;23;20055;-84
2022/02/15 17:15:42;;;;;;;3.33;1.80;;;4.80;99.90;;;;;;6248562;22;20024;-84
2022/02/15 17:18:29;;;;;;;2.28;1.90;;;4.80;99.90;;;;;;6242286;23;20028;-84
2022/02/15 17:21:20;;;;;;;3.35;2.17;;;4.80;99.90;;;;;;6244428;23;20414;-86
2022/02/15 17:24:07;;;;;;;5.47;2.20;;;4.70;99.90;;;;;;6242231;23;20039;-84
2022/02/15 17:26:58;;;;;;;5.75;2.20;;;4.70;99.90;;;;;;6246936;23;20032;-86
2022/02/15 17:29:45;;;;;;;4.30;2.30;;;4.60;99.90;;;;;;6246445;23;20095;-85
2022/02/15 17:32:32;;;;;;;9.07;3.10;;;4.60;99.90;;;;;;6246435;22;20024;-86
2022/02/15 17:35:22;;;;;;;4.18;2.47;;;4.50;99.90;;;;;;6243646;23;20047;-86
2022/02/15 17:38:09;;;;;;;5.40;2.65;;;4.30;99.90;;;;;;6246360;22;20355;-85
2022/02/15 17:41:01;;;;;;;7.88;3.03;;;4.30;99.90;;;;;;6244418;23;20035;-84
2022/02/15 17:43:50;;;;;;;8.70;2.95;;;4.20;99.90;;;;;;6246674;23;20401;-84
2022/02/15 17:46:37;;;;;;;6.05;3.25;;;4.10;99.90;;;;;;6247992;23;20035;-85
2022/02/15 17:49:26;;;;;;;4.35;3.15;;;4.10;99.90;;;;;;6246846;22;20273;-87
2022/02/15 17:52:14;;;;;;;7.43;3.55;;;4.00;99.90;;;;;;6244326;23;20027;-88
2022/02/15 17:55:04;;;;;;;8.18;3.90;;;3.90;99.90;;;;;;6245284;23;20043;-85
2022/02/15 17:57:53;;;;;;;4.70;3.00;;;3.90;99.90;;;;;;6245510;23;20127;-87
2022/02/15 18:00:41;;;;;;;4.35;3.00;;;3.80;99.90;;;;;;6244420;23;20032;-85
2022/02/15 18:03:33;;;;;;;5.97;3.72;;;3.80;99.90;;;;;;6243882;23;20334;-85
2022/02/15 18:06:22;;;;;;;6.38;3.20;;;3.70;99.90;;;;;;6240763;23;20028;-86
2022/02/15 18:09:12;;;;;;;6.93;3.25;;;3.50;99.90;;;;;;6245697;22;20028;-88
2022/02/15 18:12:02;;;;;;;5.00;3.35;;;3.50;99.90;;;;;;6243511;23;20040;-89
2022/02/15 18:14:52;;;;;;;5.00;4.32;;;3.40;99.90;;;;;;6245213;23;20036;-89
2022/02/15 18:17:42;;;;;;;9.52;3.50;;;3.40;99.90;;;;;;6245632;23;20315;-89
2022/02/15 18:20:33;;;;;;;6.87;4.13;;;3.40;99.90;;;;;;6246064;23;20277;-88
2022/02/15 18:23:22;;;;;;;7.00;4.00;;;3.30;99.90;;;;;;6257568;23;20240;-87
2022/02/15 18:26:10;;;;;;;8.63;5.22;;;3.30;99.90;;;;;;6258583;23;20083;-88
2022/02/15 18:28:59;;;;;;;5.53;3.78;;;3.20;99.90;;;;;;6263001;22;20024;-87
2022/02/15 18:32:06;;;;;;;8.27;5.20;;;3.20;99.90;;;;;;6262907;23;20075;-84
2022/02/15 18:34:53;;;;;;;6.07;3.70;;;3.20;99.90;;;;;;6268443;22;20030;-86
2022/02/15 18:37:41;;;;;;;6.55;4.25;;;3.10;99.90;;;;;;6268304;22;20086;-88
2022/02/15 18:40:32;;;;;;;6.60;4.10;;;3.10;99.90;;;;;;6259672;23;20047;-89
2022/02/15 18:43:19;;;;;;;8.70;4.90;;;3.00;99.90;;;;;;6260022;23;20054;-91
2022/02/15 18:46:06;;;;;;;8.27;5.22;;;3.00;99.90;;;;;;6260579;23;20032;-89
2022/02/15 18:48:54;;;;;;;7.60;4.20;;;2.90;99.90;;;;;;6258742;23;20020;-92
2022/02/15 18:51:50;;;;;;;6.43;4.10;;;2.90;99.90;;;;;;6255239;23;20032;-88
2022/02/15 18:54:39;;;;;;;6.65;4.45;;;2.90;99.90;;;;;;6252690;23;20028;-88
2022/02/15 18:57:48;;;;;;;7.43;4.70;;;2.80;99.90;;;;;;6249074;23;20046;-87
2022/02/15 19:00:38;;;;;;;7.22;4.68;;;2.80;99.90;;;;;;6245858;23;20115;-88
2022/02/15 19:03:36;;;;;;;9.95;5.35;;;2.80;99.90;;;;;;6243907;23;20465;-89
2022/02/15 19:06:28;;;;;;;8.30;4.60;;;2.70;99.90;;;;;;6244389;23;20024;-89
2022/02/15 19:09:21;;;;;;;9.60;5.40;;;2.70;99.90;;;;;;6245590;23;20076;-87
2022/02/15 19:12:41;;;;;;;11.10;6.10;;;2.70;99.90;;;;;;6182935;23;20439;-90
2022/02/15 19:15:46;;;;;;;6.60;5.00;;;2.60;99.90;;;;;;6185558;23;20028;-90
2022/02/15 19:18:42;;;;;;;7.88;5.30;;;2.60;99.90;;;;;;6183027;23;20193;-91
2022/02/15 19:22:08;;;;;;;7.32;5.03;;;2.60;99.90;;;;;;6165450;23;20128;-90
2022/02/15 19:25:09;;;;;;;7.60;4.63;;;2.50;99.90;;;;;;6183170;23;20025;-87
2022/02/15 19:27:59;;;;;;;7.15;4.28;;;2.50;99.90;;;;;;6202667;23;20046;-90
2022/02/15 19:30:50;;;;;;;6.72;4.90;;;2.50;99.90;;;;;;6255377;23;20063;-89
2022/02/15 19:33:48;;;;;;;7.22;4.97;;;2.60;99.90;;;;;;6245012;23;20093;-88
2022/02/15 19:36:37;;;;;;;5.80;3.95;;;2.60;99.90;;;;;;6246073;23;20052;-88
2022/02/15 19:39:24;;;;;;;5.63;4.47;;;2.60;99.90;;;;;;6248754;23;20091;-89
2022/02/15 19:42:11;;;;;;;6.65;4.07;;;2.60;99.90;;;;;;6243771;23;20108;-91
2022/02/15 19:45:17;;;;;;;7.78;4.70;;;2.60;99.90;;;;;;6245510;23;20020;-89
2022/02/15 19:48:10;;;;;;;7.03;4.65;;;2.60;99.90;;;;;;6242417;23;20020;-90
2022/02/15 19:50:58;;;;;;;10.10;4.63;;;2.50;99.90;;;;;;6246335;22;20162;-89
2022/02/15 19:53:48;;;;;;;7.35;5.10;;;2.60;99.90;;;;;;6245060;23;20024;-85
2022/02/15 19:56:38;;;;;;;7.40;4.68;;;2.60;99.90;;;;;;6243902;23;20024;-87
2022/02/15 19:59:26;;;;;;;7.75;4.72;;;2.60;99.90;;;;;;6243698;23;20063;-88
2022/02/15 20:02:13;;;;;;;8.63;5.55;;;2.60;99.90;;;;;;6245565;22;20040;-88
2022/02/15 20:05:00;;;;;;;6.38;4.05;;;2.70;99.90;;;;;;6244739;23;20439;-88
2022/02/15 20:07:49;;;;;;;10.05;5.00;;;2.80;99.90;;;;;;6243213;23;20024;-86